sensor_id;sensor_type;location;lat;lon;timestamp;P1;durP1;ratioP1;P2;durP2;ratioP2
8058;SDS011;75058;42.668;23.396;2024-02-21T00:00:46;6.97;;;4.15;;
8058;SDS011;75058;42.668;23.396;2024-02-21T00:03:16;9.95;;;3.50;;
8058;SDS011;75058;42.668;23.396;2024-02-21T00:05:44;7.18;;;3.75;;
8058;SDS011;75058;42.668;23.396;2024-02-21T00:08:12;9.00;;;4.10;;
8058;SDS011;75058;42.668;23.396;2024-02-21T00:10:40;6.60;;;3.65;;
8058;SDS011;75058;42.668;23.396;2024-02-21T00:13:08;10.00;;;4.45;;
8058;SDS011;75058;42.668;23.396;2024-02-21T00:15:36;6.43;;;3.78;;
8058;SDS011;75058;42.668;23.396;2024-02-21T00:18:04;5.90;;;3.72;;
8058;SDS011;75058;42.668;23.396;2024-02-21T00:20:34;9.30;;;4.00;;
8058;SDS011;75058;42.668;23.396;2024-02-21T00:23:02;7.00;;;4.18;;
8058;SDS011;75058;42.668;23.396;2024-02-21T00:25:30;8.35;;;4.25;;
8058;SDS011;75058;42.668;23.396;2024-02-21T00:27:58;9.55;;;4.88;;
8058;SDS011;75058;42.668;23.396;2024-02-21T00:30:26;9.20;;;4.47;;
8058;SDS011;75058;42.668;23.396;2024-02-21T00:32:54;6.68;;;3.53;;
8058;SDS011;75058;42.668;23.396;2024-02-21T00:35:22;7.68;;;3.78;;
8058;SDS011;75058;42.668;23.396;2024-02-21T00:37:51;7.53;;;4.13;;
8058;SDS011;75058;42.668;23.396;2024-02-21T00:40:19;7.85;;;4.50;;
8058;SDS011;75058;42.668;23.396;2024-02-21T00:42:48;6.47;;;3.60;;
8058;SDS011;75058;42.668;23.396;2024-02-21T00:45:16;7.93;;;4.18;;
8058;SDS011;75058;42.668;23.396;2024-02-21T00:47:44;6.90;;;4.28;;
8058;SDS011;75058;42.668;23.396;2024-02-21T00:50:12;7.65;;;3.90;;
8058;SDS011;75058;42.668;23.396;2024-02-21T00:52:40;10.43;;;4.95;;
8058;SDS011;75058;42.668;23.396;2024-02-21T00:55:10;7.68;;;4.30;;
8058;SDS011;75058;42.668;23.396;2024-02-21T00:57:38;5.80;;;4.03;;
8058;SDS011;75058;42.668;23.396;2024-02-21T01:00:06;6.13;;;3.72;;
8058;SDS011;75058;42.668;23.396;2024-02-21T01:02:35;5.55;;;3.28;;
8058;SDS011;75058;42.668;23.396;2024-02-21T01:05:03;6.70;;;3.60;;
8058;SDS011;75058;42.668;23.396;2024-02-21T01:07:32;6.57;;;3.40;;
8058;SDS011;75058;42.668;23.396;2024-02-21T01:09:59;6.63;;;3.72;;
8058;SDS011;75058;42.668;23.396;2024-02-21T01:12:29;6.50;;;4.05;;
8058;SDS011;75058;42.668;23.396;2024-02-21T01:14:57;6.50;;;3.60;;
8058;SDS011;75058;42.668;23.396;2024-02-21T01:17:25;5.72;;;3.45;;
8058;SDS011;75058;42.668;23.396;2024-02-21T01:19:53;5.05;;;3.38;;
8058;SDS011;75058;42.668;23.396;2024-02-21T01:22:21;6.40;;;3.78;;
8058;SDS011;75058;42.668;23.396;2024-02-21T01:24:49;6.13;;;3.47;;
8058;SDS011;75058;42.668;23.396;2024-02-21T01:27:17;6.72;;;3.72;;
8058;SDS011;75058;42.668;23.396;2024-02-21T01:29:46;6.80;;;3.60;;
8058;SDS011;75058;42.668;23.396;2024-02-21T01:32:16;6.82;;;3.63;;
8058;SDS011;75058;42.668;23.396;2024-02-21T01:34:44;6.22;;;3.45;;
8058;SDS011;75058;42.668;23.396;2024-02-21T01:37:12;9.95;;;3.95;;
8058;SDS011;75058;42.668;23.396;2024-02-21T01:39:40;8.25;;;4.45;;
8058;SDS011;75058;42.668;23.396;2024-02-21T01:42:08;7.50;;;4.20;;
8058;SDS011;75058;42.668;23.396;2024-02-21T01:44:36;7.55;;;4.50;;
8058;SDS011;75058;42.668;23.396;2024-02-21T01:47:06;10.18;;;4.40;;
8058;SDS011;75058;42.668;23.396;2024-02-21T01:49:34;6.50;;;4.20;;
8058;SDS011;75058;42.668;23.396;2024-02-21T01:52:02;8.80;;;5.07;;
8058;SDS011;75058;42.668;23.396;2024-02-21T01:54:30;7.60;;;4.18;;
8058;SDS011;75058;42.668;23.396;2024-02-21T01:56:59;8.90;;;4.53;;
8058;SDS011;75058;42.668;23.396;2024-02-21T01:59:27;9.68;;;4.22;;
8058;SDS011;75058;42.668;23.396;2024-02-21T02:01:55;7.03;;;4.28;;
8058;SDS011;75058;42.668;23.396;2024-02-21T02:04:25;6.03;;;3.53;;
8058;SDS011;75058;42.668;23.396;2024-02-21T02:06:55;6.22;;;3.95;;
8058;SDS011;75058;42.668;23.396;2024-02-21T02:09:24;8.43;;;4.47;;
8058;SDS011;75058;42.668;23.396;2024-02-21T02:11:52;9.77;;;4.85;;
8058;SDS011;75058;42.668;23.396;2024-02-21T02:14:20;8.38;;;4.13;;
8058;SDS011;75058;42.668;23.396;2024-02-21T02:16:48;7.82;;;4.43;;
8058;SDS011;75058;42.668;23.396;2024-02-21T02:19:16;7.88;;;4.25;;
8058;SDS011;75058;42.668;23.396;2024-02-21T02:21:46;9.82;;;4.72;;
8058;SDS011;75058;42.668;23.396;2024-02-21T02:24:21;8.73;;;4.50;;
8058;SDS011;75058;42.668;23.396;2024-02-21T02:26:51;8.05;;;4.80;;
8058;SDS011;75058;42.668;23.396;2024-02-21T02:29:19;7.65;;;4.40;;
8058;SDS011;75058;42.668;23.396;2024-02-21T02:31:47;11.15;;;5.50;;
8058;SDS011;75058;42.668;23.396;2024-02-21T02:34:16;10.73;;;6.57;;
8058;SDS011;75058;42.668;23.396;2024-02-21T02:36:44;12.55;;;5.70;;
8058;SDS011;75058;42.668;23.396;2024-02-21T02:39:12;11.25;;;5.90;;
8058;SDS011;75058;42.668;23.396;2024-02-21T02:41:41;12.55;;;6.78;;
8058;SDS011;75058;42.668;23.396;2024-02-21T02:44:09;11.00;;;6.20;;
8058;SDS011;75058;42.668;23.396;2024-02-21T02:46:39;13.00;;;6.35;;
8058;SDS011;75058;42.668;23.396;2024-02-21T02:49:07;14.20;;;6.30;;
8058;SDS011;75058;42.668;23.396;2024-02-21T02:51:36;11.85;;;6.38;;
8058;SDS011;75058;42.668;23.396;2024-02-21T02:54:03;10.80;;;5.95;;
8058;SDS011;75058;42.668;23.396;2024-02-21T02:56:31;11.30;;;6.20;;
8058;SDS011;75058;42.668;23.396;2024-02-21T02:59:01;13.43;;;6.57;;
8058;SDS011;75058;42.668;23.396;2024-02-21T03:01:32;12.73;;;5.80;;
8058;SDS011;75058;42.668;23.396;2024-02-21T03:04:01;14.02;;;6.75;;
8058;SDS011;75058;42.668;23.396;2024-02-21T03:06:29;11.63;;;6.35;;
8058;SDS011;75058;42.668;23.396;2024-02-21T03:08:57;15.93;;;7.35;;
8058;SDS011;75058;42.668;23.396;2024-02-21T03:11:26;11.40;;;6.60;;
8058;SDS011;75058;42.668;23.396;2024-02-21T03:13:56;11.27;;;6.78;;
8058;SDS011;75058;42.668;23.396;2024-02-21T03:16:26;12.85;;;6.97;;
8058;SDS011;75058;42.668;23.396;2024-02-21T03:18:53;12.45;;;7.10;;
8058;SDS011;75058;42.668;23.396;2024-02-21T03:21:21;13.15;;;7.15;;
8058;SDS011;75058;42.668;23.396;2024-02-21T03:23:50;14.07;;;7.72;;
8058;SDS011;75058;42.668;23.396;2024-02-21T03:26:18;13.30;;;7.43;;
8058;SDS011;75058;42.668;23.396;2024-02-21T03:28:46;16.63;;;7.95;;
8058;SDS011;75058;42.668;23.396;2024-02-21T03:31:14;13.90;;;7.50;;
8058;SDS011;75058;42.668;23.396;2024-02-21T03:33:44;14.43;;;7.78;;
8058;SDS011;75058;42.668;23.396;2024-02-21T03:36:13;14.25;;;7.53;;
8058;SDS011;75058;42.668;23.396;2024-02-21T03:38:42;14.00;;;7.63;;
8058;SDS011;75058;42.668;23.396;2024-02-21T03:41:10;16.50;;;8.98;;
8058;SDS011;75058;42.668;23.396;2024-02-21T03:43:38;15.25;;;8.27;;
8058;SDS011;75058;42.668;23.396;2024-02-21T03:46:06;15.25;;;9.02;;
8058;SDS011;75058;42.668;23.396;2024-02-21T03:48:35;16.35;;;8.20;;
8058;SDS011;75058;42.668;23.396;2024-02-21T03:51:05;14.02;;;8.30;;
8058;SDS011;75058;42.668;23.396;2024-02-21T03:53:32;16.00;;;8.43;;
8058;SDS011;75058;42.668;23.396;2024-02-21T03:56:01;20.52;;;9.13;;
8058;SDS011;75058;42.668;23.396;2024-02-21T03:58:30;15.85;;;8.70;;
8058;SDS011;75058;42.668;23.396;2024-02-21T04:00:59;17.23;;;8.38;;
8058;SDS011;75058;42.668;23.396;2024-02-21T04:03:28;15.13;;;8.60;;
8058;SDS011;75058;42.668;23.396;2024-02-21T04:05:57;19.30;;;8.85;;
8058;SDS011;75058;42.668;23.396;2024-02-21T04:08:26;16.40;;;8.57;;
8058;SDS011;75058;42.668;23.396;2024-02-21T04:10:54;15.52;;;8.13;;
8058;SDS011;75058;42.668;23.396;2024-02-21T04:13:22;16.92;;;9.13;;
8058;SDS011;75058;42.668;23.396;2024-02-21T04:15:50;16.02;;;8.52;;
8058;SDS011;75058;42.668;23.396;2024-02-21T04:18:18;15.90;;;8.82;;
8058;SDS011;75058;42.668;23.396;2024-02-21T04:20:46;14.88;;;8.23;;
8058;SDS011;75058;42.668;23.396;2024-02-21T04:23:14;15.75;;;8.45;;
8058;SDS011;75058;42.668;23.396;2024-02-21T04:25:44;15.80;;;8.82;;
8058;SDS011;75058;42.668;23.396;2024-02-21T04:28:12;14.25;;;7.78;;
8058;SDS011;75058;42.668;23.396;2024-02-21T04:30:40;15.13;;;8.32;;
8058;SDS011;75058;42.668;23.396;2024-02-21T04:33:08;14.57;;;8.60;;
8058;SDS011;75058;42.668;23.396;2024-02-21T04:35:36;17.30;;;9.60;;
8058;SDS011;75058;42.668;23.396;2024-02-21T04:38:05;15.63;;;8.35;;
8058;SDS011;75058;42.668;23.396;2024-02-21T04:40:33;15.38;;;8.15;;
8058;SDS011;75058;42.668;23.396;2024-02-21T04:43:03;19.05;;;9.18;;
8058;SDS011;75058;42.668;23.396;2024-02-21T04:45:31;16.20;;;8.65;;
8058;SDS011;75058;42.668;23.396;2024-02-21T04:47:59;19.48;;;9.95;;
8058;SDS011;75058;42.668;23.396;2024-02-21T04:50:27;17.10;;;9.05;;
8058;SDS011;75058;42.668;23.396;2024-02-21T04:52:55;18.17;;;8.85;;
8058;SDS011;75058;42.668;23.396;2024-02-21T04:55:23;18.83;;;9.25;;
8058;SDS011;75058;42.668;23.396;2024-02-21T04:57:50;18.52;;;9.18;;
8058;SDS011;75058;42.668;23.396;2024-02-21T05:00:20;17.08;;;8.52;;
8058;SDS011;75058;42.668;23.396;2024-02-21T05:02:48;18.48;;;9.45;;
8058;SDS011;75058;42.668;23.396;2024-02-21T05:05:16;18.23;;;9.52;;
8058;SDS011;75058;42.668;23.396;2024-02-21T05:07:44;17.52;;;9.70;;
8058;SDS011;75058;42.668;23.396;2024-02-21T05:10:13;18.00;;;9.68;;
8058;SDS011;75058;42.668;23.396;2024-02-21T05:12:41;20.70;;;10.50;;
8058;SDS011;75058;42.668;23.396;2024-02-21T05:15:09;20.33;;;10.77;;
8058;SDS011;75058;42.668;23.396;2024-02-21T05:17:38;21.48;;;10.95;;
8058;SDS011;75058;42.668;23.396;2024-02-21T05:20:07;21.73;;;11.43;;
8058;SDS011;75058;42.668;23.396;2024-02-21T05:22:35;21.88;;;10.85;;
8058;SDS011;75058;42.668;23.396;2024-02-21T05:25:03;23.52;;;12.07;;
8058;SDS011;75058;42.668;23.396;2024-02-21T05:27:32;19.77;;;9.52;;
8058;SDS011;75058;42.668;23.396;2024-02-21T05:30:01;18.02;;;10.10;;
8058;SDS011;75058;42.668;23.396;2024-02-21T05:32:29;23.92;;;12.93;;
8058;SDS011;75058;42.668;23.396;2024-02-21T05:34:58;21.85;;;11.68;;
8058;SDS011;75058;42.668;23.396;2024-02-21T05:37:27;20.15;;;10.30;;
8058;SDS011;75058;42.668;23.396;2024-02-21T05:39:54;22.67;;;12.05;;
8058;SDS011;75058;42.668;23.396;2024-02-21T05:42:22;23.97;;;11.40;;
8058;SDS011;75058;42.668;23.396;2024-02-21T05:44:50;22.37;;;11.90;;
8058;SDS011;75058;42.668;23.396;2024-02-21T05:47:19;23.20;;;11.95;;
8058;SDS011;75058;42.668;23.396;2024-02-21T05:49:48;24.70;;;13.10;;
8058;SDS011;75058;42.668;23.396;2024-02-21T05:52:17;23.73;;;12.13;;
8058;SDS011;75058;42.668;23.396;2024-02-21T05:54:45;23.67;;;12.45;;
8058;SDS011;75058;42.668;23.396;2024-02-21T05:57:16;27.80;;;11.50;;
8058;SDS011;75058;42.668;23.396;2024-02-21T05:59:44;21.55;;;11.75;;
8058;SDS011;75058;42.668;23.396;2024-02-21T06:02:12;28.50;;;12.13;;
8058;SDS011;75058;42.668;23.396;2024-02-21T06:04:41;25.58;;;12.15;;
8058;SDS011;75058;42.668;23.396;2024-02-21T06:07:09;27.02;;;12.88;;
8058;SDS011;75058;42.668;23.396;2024-02-21T06:09:38;28.65;;;14.82;;
8058;SDS011;75058;42.668;23.396;2024-02-21T06:12:06;29.00;;;14.30;;
8058;SDS011;75058;42.668;23.396;2024-02-21T06:14:35;26.27;;;13.52;;
8058;SDS011;75058;42.668;23.396;2024-02-21T06:17:03;25.52;;;13.90;;
8058;SDS011;75058;42.668;23.396;2024-02-21T06:19:31;28.52;;;14.20;;
8058;SDS011;75058;42.668;23.396;2024-02-21T06:21:59;31.33;;;14.57;;
8058;SDS011;75058;42.668;23.396;2024-02-21T06:24:27;24.40;;;12.85;;
8058;SDS011;75058;42.668;23.396;2024-02-21T06:26:57;25.00;;;13.23;;
8058;SDS011;75058;42.668;23.396;2024-02-21T06:29:24;31.17;;;13.90;;
8058;SDS011;75058;42.668;23.396;2024-02-21T06:31:52;26.55;;;13.38;;
8058;SDS011;75058;42.668;23.396;2024-02-21T06:34:20;29.85;;;15.90;;
8058;SDS011;75058;42.668;23.396;2024-02-21T06:36:48;29.52;;;13.50;;
8058;SDS011;75058;42.668;23.396;2024-02-21T06:39:16;32.88;;;16.02;;
8058;SDS011;75058;42.668;23.396;2024-02-21T06:41:44;39.85;;;19.38;;
8058;SDS011;75058;42.668;23.396;2024-02-21T06:44:15;41.65;;;19.45;;
8058;SDS011;75058;42.668;23.396;2024-02-21T06:46:43;42.63;;;18.05;;
8058;SDS011;75058;42.668;23.396;2024-02-21T06:49:11;34.45;;;16.60;;
8058;SDS011;75058;42.668;23.396;2024-02-21T06:51:42;32.05;;;16.50;;
8058;SDS011;75058;42.668;23.396;2024-02-21T06:54:10;35.78;;;17.10;;
8058;SDS011;75058;42.668;23.396;2024-02-21T06:56:39;34.33;;;17.45;;
8058;SDS011;75058;42.668;23.396;2024-02-21T06:59:07;34.03;;;17.45;;
8058;SDS011;75058;42.668;23.396;2024-02-21T07:01:37;37.10;;;17.52;;
8058;SDS011;75058;42.668;23.396;2024-02-21T07:04:05;46.53;;;22.13;;
8058;SDS011;75058;42.668;23.396;2024-02-21T07:06:33;34.50;;;16.98;;
8058;SDS011;75058;42.668;23.396;2024-02-21T07:09:02;44.60;;;22.42;;
8058;SDS011;75058;42.668;23.396;2024-02-21T07:11:30;33.20;;;17.15;;
8058;SDS011;75058;42.668;23.396;2024-02-21T07:13:58;32.63;;;16.27;;
8058;SDS011;75058;42.668;23.396;2024-02-21T07:16:26;29.98;;;16.38;;
8058;SDS011;75058;42.668;23.396;2024-02-21T07:18:56;32.83;;;15.55;;
8058;SDS011;75058;42.668;23.396;2024-02-21T07:21:24;30.77;;;16.38;;
8058;SDS011;75058;42.668;23.396;2024-02-21T07:23:54;30.17;;;15.82;;
8058;SDS011;75058;42.668;23.396;2024-02-21T07:26:21;32.00;;;15.32;;
8058;SDS011;75058;42.668;23.396;2024-02-21T07:28:49;34.25;;;16.95;;
8058;SDS011;75058;42.668;23.396;2024-02-21T07:31:17;31.40;;;15.85;;
8058;SDS011;75058;42.668;23.396;2024-02-21T07:33:45;40.97;;;18.27;;
8058;SDS011;75058;42.668;23.396;2024-02-21T07:36:15;35.45;;;16.27;;
8058;SDS011;75058;42.668;23.396;2024-02-21T07:38:51;31.48;;;16.95;;
8058;SDS011;75058;42.668;23.396;2024-02-21T07:41:19;36.40;;;17.50;;
8058;SDS011;75058;42.668;23.396;2024-02-21T07:43:47;33.40;;;14.88;;
8058;SDS011;75058;42.668;23.396;2024-02-21T07:46:16;33.58;;;13.52;;
8058;SDS011;75058;42.668;23.396;2024-02-21T07:48:45;29.75;;;15.30;;
8058;SDS011;75058;42.668;23.396;2024-02-21T07:51:14;27.80;;;13.88;;
8058;SDS011;75058;42.668;23.396;2024-02-21T07:53:44;34.05;;;14.02;;
8058;SDS011;75058;42.668;23.396;2024-02-21T07:56:12;28.25;;;13.27;;
8058;SDS011;75058;42.668;23.396;2024-02-21T07:58:40;20.58;;;11.05;;
8058;SDS011;75058;42.668;23.396;2024-02-21T08:01:10;17.40;;;8.25;;
8058;SDS011;75058;42.668;23.396;2024-02-21T08:03:38;21.65;;;10.68;;
8058;SDS011;75058;42.668;23.396;2024-02-21T08:06:06;16.98;;;7.68;;
8058;SDS011;75058;42.668;23.396;2024-02-21T08:08:41;20.15;;;9.68;;
8058;SDS011;75058;42.668;23.396;2024-02-21T08:11:09;22.10;;;11.55;;
8058;SDS011;75058;42.668;23.396;2024-02-21T08:13:37;24.85;;;10.15;;
8058;SDS011;75058;42.668;23.396;2024-02-21T08:16:05;26.00;;;10.40;;
8058;SDS011;75058;42.668;23.396;2024-02-21T08:18:33;19.77;;;10.73;;
8058;SDS011;75058;42.668;23.396;2024-02-21T08:21:03;26.98;;;13.05;;
8058;SDS011;75058;42.668;23.396;2024-02-21T08:23:31;21.90;;;10.00;;
8058;SDS011;75058;42.668;23.396;2024-02-21T08:26:02;25.15;;;10.98;;
8058;SDS011;75058;42.668;23.396;2024-02-21T08:28:30;25.60;;;11.02;;
8058;SDS011;75058;42.668;23.396;2024-02-21T08:30:59;23.58;;;11.52;;
8058;SDS011;75058;42.668;23.396;2024-02-21T08:33:27;21.02;;;10.30;;
8058;SDS011;75058;42.668;23.396;2024-02-21T08:35:56;27.65;;;12.55;;
8058;SDS011;75058;42.668;23.396;2024-02-21T08:38:24;25.50;;;10.98;;
8058;SDS011;75058;42.668;23.396;2024-02-21T08:40:52;20.67;;;10.68;;
8058;SDS011;75058;42.668;23.396;2024-02-21T08:43:21;22.00;;;11.18;;
8058;SDS011;75058;42.668;23.396;2024-02-21T08:45:49;19.70;;;10.60;;
8058;SDS011;75058;42.668;23.396;2024-02-21T08:48:17;18.05;;;9.07;;
8058;SDS011;75058;42.668;23.396;2024-02-21T08:50:45;20.38;;;10.52;;
8058;SDS011;75058;42.668;23.396;2024-02-21T08:53:13;20.27;;;10.25;;
8058;SDS011;75058;42.668;23.396;2024-02-21T08:55:42;24.95;;;10.25;;
8058;SDS011;75058;42.668;23.396;2024-02-21T08:58:11;19.45;;;10.63;;
8058;SDS011;75058;42.668;23.396;2024-02-21T09:00:42;16.35;;;9.10;;
8058;SDS011;75058;42.668;23.396;2024-02-21T09:03:10;8.30;;;3.83;;
8058;SDS011;75058;42.668;23.396;2024-02-21T09:05:38;22.25;;;9.05;;
8058;SDS011;75058;42.668;23.396;2024-02-21T09:08:07;17.70;;;8.43;;
8058;SDS011;75058;42.668;23.396;2024-02-21T09:10:35;9.90;;;5.20;;
8058;SDS011;75058;42.668;23.396;2024-02-21T09:13:03;12.95;;;6.43;;
8058;SDS011;75058;42.668;23.396;2024-02-21T09:15:31;15.98;;;9.15;;
8058;SDS011;75058;42.668;23.396;2024-02-21T09:18:02;12.88;;;6.70;;
8058;SDS011;75058;42.668;23.396;2024-02-21T09:20:30;14.85;;;8.02;;
8058;SDS011;75058;42.668;23.396;2024-02-21T09:22:58;25.75;;;11.10;;
8058;SDS011;75058;42.668;23.396;2024-02-21T09:25:26;29.88;;;15.15;;
8058;SDS011;75058;42.668;23.396;2024-02-21T09:27:55;24.35;;;10.27;;
8058;SDS011;75058;42.668;23.396;2024-02-21T09:30:24;9.52;;;5.13;;
8058;SDS011;75058;42.668;23.396;2024-02-21T09:32:52;14.90;;;7.20;;
8058;SDS011;75058;42.668;23.396;2024-02-21T09:35:22;17.55;;;9.07;;
8058;SDS011;75058;42.668;23.396;2024-02-21T09:37:52;14.90;;;8.85;;
8058;SDS011;75058;42.668;23.396;2024-02-21T09:40:20;16.25;;;7.72;;
8058;SDS011;75058;42.668;23.396;2024-02-21T09:42:48;14.75;;;7.35;;
8058;SDS011;75058;42.668;23.396;2024-02-21T09:45:20;17.73;;;8.15;;
8058;SDS011;75058;42.668;23.396;2024-02-21T09:47:50;18.02;;;9.05;;
8058;SDS011;75058;42.668;23.396;2024-02-21T09:50:33;18.50;;;8.98;;
8058;SDS011;75058;42.668;23.396;2024-02-21T09:53:02;10.73;;;5.25;;
8058;SDS011;75058;42.668;23.396;2024-02-21T09:55:33;17.20;;;7.80;;
8058;SDS011;75058;42.668;23.396;2024-02-21T09:58:01;13.30;;;7.95;;
8058;SDS011;75058;42.668;23.396;2024-02-21T10:00:29;9.18;;;5.07;;
8058;SDS011;75058;42.668;23.396;2024-02-21T10:02:58;19.20;;;8.80;;
8058;SDS011;75058;42.668;23.396;2024-02-21T10:05:26;19.73;;;9.32;;
8058;SDS011;75058;42.668;23.396;2024-02-21T10:07:55;12.13;;;6.50;;
8058;SDS011;75058;42.668;23.396;2024-02-21T10:10:24;13.75;;;8.02;;
8058;SDS011;75058;42.668;23.396;2024-02-21T10:12:53;17.02;;;8.40;;
8058;SDS011;75058;42.668;23.396;2024-02-21T10:15:22;10.90;;;6.03;;
8058;SDS011;75058;42.668;23.396;2024-02-21T10:17:57;11.82;;;6.20;;
8058;SDS011;75058;42.668;23.396;2024-02-21T10:20:26;11.90;;;5.38;;
8058;SDS011;75058;42.668;23.396;2024-02-21T10:23:01;11.80;;;6.45;;
8058;SDS011;75058;42.668;23.396;2024-02-21T10:25:34;9.98;;;5.30;;
8058;SDS011;75058;42.668;23.396;2024-02-21T10:28:04;6.18;;;3.40;;
8058;SDS011;75058;42.668;23.396;2024-02-21T10:30:32;12.88;;;6.93;;
8058;SDS011;75058;42.668;23.396;2024-02-21T10:33:00;14.77;;;7.35;;
8058;SDS011;75058;42.668;23.396;2024-02-21T10:35:30;13.98;;;7.28;;
8058;SDS011;75058;42.668;23.396;2024-02-21T10:37:59;8.55;;;5.43;;
8058;SDS011;75058;42.668;23.396;2024-02-21T10:40:29;9.50;;;5.00;;
8058;SDS011;75058;42.668;23.396;2024-02-21T10:42:58;9.82;;;6.60;;
8058;SDS011;75058;42.668;23.396;2024-02-21T10:45:29;13.27;;;7.43;;
8058;SDS011;75058;42.668;23.396;2024-02-21T10:48:01;15.57;;;8.30;;
8058;SDS011;75058;42.668;23.396;2024-02-21T10:50:40;7.95;;;4.88;;
8058;SDS011;75058;42.668;23.396;2024-02-21T10:53:22;19.20;;;9.00;;
8058;SDS011;75058;42.668;23.396;2024-02-21T10:56:01;14.88;;;8.38;;
8058;SDS011;75058;42.668;23.396;2024-02-21T10:58:40;13.75;;;6.45;;
8058;SDS011;75058;42.668;23.396;2024-02-21T11:01:09;19.60;;;10.27;;
8058;SDS011;75058;42.668;23.396;2024-02-21T11:03:39;9.98;;;6.05;;
8058;SDS011;75058;42.668;23.396;2024-02-21T11:06:07;13.32;;;6.50;;
8058;SDS011;75058;42.668;23.396;2024-02-21T11:08:38;10.52;;;6.00;;
8058;SDS011;75058;42.668;23.396;2024-02-21T11:11:07;13.30;;;6.30;;
8058;SDS011;75058;42.668;23.396;2024-02-21T11:13:49;7.97;;;4.70;;
8058;SDS011;75058;42.668;23.396;2024-02-21T11:16:21;15.73;;;6.20;;
8058;SDS011;75058;42.668;23.396;2024-02-21T11:18:50;10.63;;;5.55;;
8058;SDS011;75058;42.668;23.396;2024-02-21T11:21:18;10.57;;;5.25;;
8058;SDS011;75058;42.668;23.396;2024-02-21T11:23:54;7.78;;;4.38;;
8058;SDS011;75058;42.668;23.396;2024-02-21T11:26:24;10.13;;;5.03;;
8058;SDS011;75058;42.668;23.396;2024-02-21T11:28:56;5.88;;;2.97;;
8058;SDS011;75058;42.668;23.396;2024-02-21T11:31:26;8.15;;;3.88;;
8058;SDS011;75058;42.668;23.396;2024-02-21T11:33:54;4.57;;;2.15;;
8058;SDS011;75058;42.668;23.396;2024-02-21T11:36:27;6.63;;;3.92;;
8058;SDS011;75058;42.668;23.396;2024-02-21T11:39:02;5.47;;;3.40;;
8058;SDS011;75058;42.668;23.396;2024-02-21T11:41:33;6.18;;;3.42;;
8058;SDS011;75058;42.668;23.396;2024-02-21T11:44:01;5.70;;;2.75;;
8058;SDS011;75058;42.668;23.396;2024-02-21T11:46:30;4.82;;;3.08;;
8058;SDS011;75058;42.668;23.396;2024-02-21T11:48:59;8.25;;;3.15;;
8058;SDS011;75058;42.668;23.396;2024-02-21T11:51:28;7.30;;;4.28;;
8058;SDS011;75058;42.668;23.396;2024-02-21T11:53:56;6.43;;;4.10;;
8058;SDS011;75058;42.668;23.396;2024-02-21T11:56:27;5.70;;;3.65;;
8058;SDS011;75058;42.668;23.396;2024-02-21T11:58:57;4.57;;;3.00;;
8058;SDS011;75058;42.668;23.396;2024-02-21T12:01:26;6.22;;;2.90;;
8058;SDS011;75058;42.668;23.396;2024-02-21T12:03:55;5.30;;;3.22;;
8058;SDS011;75058;42.668;23.396;2024-02-21T12:06:23;6.20;;;3.55;;
8058;SDS011;75058;42.668;23.396;2024-02-21T12:08:51;5.93;;;4.03;;
8058;SDS011;75058;42.668;23.396;2024-02-21T12:11:20;5.28;;;3.38;;
8058;SDS011;75058;42.668;23.396;2024-02-21T12:14:00;7.93;;;2.17;;
8058;SDS011;75058;42.668;23.396;2024-02-21T12:16:30;5.20;;;2.80;;
8058;SDS011;75058;42.668;23.396;2024-02-21T12:18:58;4.65;;;2.22;;
8058;SDS011;75058;42.668;23.396;2024-02-21T12:21:29;6.25;;;3.70;;
8058;SDS011;75058;42.668;23.396;2024-02-21T12:23:59;9.57;;;4.22;;
8058;SDS011;75058;42.668;23.396;2024-02-21T12:26:27;5.10;;;2.60;;
8058;SDS011;75058;42.668;23.396;2024-02-21T12:28:55;6.57;;;4.03;;
8058;SDS011;75058;42.668;23.396;2024-02-21T12:31:25;4.75;;;2.97;;
8058;SDS011;75058;42.668;23.396;2024-02-21T12:33:53;6.60;;;4.03;;
8058;SDS011;75058;42.668;23.396;2024-02-21T12:36:21;8.48;;;4.13;;
8058;SDS011;75058;42.668;23.396;2024-02-21T12:38:50;7.03;;;3.95;;
8058;SDS011;75058;42.668;23.396;2024-02-21T12:41:18;6.78;;;3.67;;
8058;SDS011;75058;42.668;23.396;2024-02-21T12:43:46;7.25;;;3.92;;
8058;SDS011;75058;42.668;23.396;2024-02-21T12:46:14;5.80;;;3.70;;
8058;SDS011;75058;42.668;23.396;2024-02-21T12:48:43;3.33;;;2.42;;
8058;SDS011;75058;42.668;23.396;2024-02-21T12:51:11;6.55;;;3.53;;
8058;SDS011;75058;42.668;23.396;2024-02-21T12:53:39;6.50;;;3.60;;
8058;SDS011;75058;42.668;23.396;2024-02-21T12:56:07;4.68;;;2.30;;
8058;SDS011;75058;42.668;23.396;2024-02-21T12:58:36;6.00;;;3.38;;
8058;SDS011;75058;42.668;23.396;2024-02-21T13:01:04;7.07;;;3.63;;
8058;SDS011;75058;42.668;23.396;2024-02-21T13:03:32;6.28;;;3.85;;
8058;SDS011;75058;42.668;23.396;2024-02-21T13:06:02;7.50;;;4.50;;
8058;SDS011;75058;42.668;23.396;2024-02-21T13:08:30;6.60;;;3.55;;
8058;SDS011;75058;42.668;23.396;2024-02-21T13:11:01;10.10;;;5.63;;
8058;SDS011;75058;42.668;23.396;2024-02-21T13:13:29;9.02;;;4.28;;
8058;SDS011;75058;42.668;23.396;2024-02-21T13:15:57;8.25;;;4.35;;
8058;SDS011;75058;42.668;23.396;2024-02-21T13:18:26;7.22;;;4.40;;
8058;SDS011;75058;42.668;23.396;2024-02-21T13:20:54;11.10;;;4.50;;
8058;SDS011;75058;42.668;23.396;2024-02-21T13:23:23;8.52;;;4.43;;
8058;SDS011;75058;42.668;23.396;2024-02-21T13:25:51;7.22;;;4.35;;
8058;SDS011;75058;42.668;23.396;2024-02-21T13:28:20;8.15;;;3.95;;
8058;SDS011;75058;42.668;23.396;2024-02-21T13:30:48;8.35;;;4.25;;
8058;SDS011;75058;42.668;23.396;2024-02-21T13:33:16;6.93;;;3.88;;
8058;SDS011;75058;42.668;23.396;2024-02-21T13:35:44;9.80;;;3.40;;
8058;SDS011;75058;42.668;23.396;2024-02-21T13:38:12;14.70;;;4.90;;
8058;SDS011;75058;42.668;23.396;2024-02-21T13:40:42;5.13;;;3.65;;
8058;SDS011;75058;42.668;23.396;2024-02-21T13:43:11;7.82;;;4.22;;
8058;SDS011;75058;42.668;23.396;2024-02-21T13:45:39;9.77;;;3.70;;
8058;SDS011;75058;42.668;23.396;2024-02-21T13:48:10;5.40;;;2.20;;
8058;SDS011;75058;42.668;23.396;2024-02-21T13:50:41;5.53;;;3.28;;
8058;SDS011;75058;42.668;23.396;2024-02-21T13:53:10;9.32;;;4.80;;
8058;SDS011;75058;42.668;23.396;2024-02-21T13:55:38;8.25;;;3.03;;
8058;SDS011;75058;42.668;23.396;2024-02-21T13:58:08;4.80;;;3.30;;
8058;SDS011;75058;42.668;23.396;2024-02-21T14:00:36;7.18;;;4.28;;
8058;SDS011;75058;42.668;23.396;2024-02-21T14:03:04;8.48;;;4.65;;
8058;SDS011;75058;42.668;23.396;2024-02-21T14:05:32;7.93;;;3.75;;
8058;SDS011;75058;42.668;23.396;2024-02-21T14:08:00;4.85;;;2.53;;
8058;SDS011;75058;42.668;23.396;2024-02-21T14:10:28;9.77;;;4.82;;
8058;SDS011;75058;42.668;23.396;2024-02-21T14:12:57;5.53;;;2.95;;
8058;SDS011;75058;42.668;23.396;2024-02-21T14:15:27;9.32;;;5.28;;
8058;SDS011;75058;42.668;23.396;2024-02-21T14:17:55;3.83;;;2.20;;
8058;SDS011;75058;42.668;23.396;2024-02-21T14:20:23;9.50;;;5.22;;
8058;SDS011;75058;42.668;23.396;2024-02-21T14:22:51;7.40;;;3.53;;
8058;SDS011;75058;42.668;23.396;2024-02-21T14:25:19;3.72;;;2.42;;
8058;SDS011;75058;42.668;23.396;2024-02-21T14:27:47;5.28;;;3.40;;
8058;SDS011;75058;42.668;23.396;2024-02-21T14:30:15;6.43;;;3.53;;
8058;SDS011;75058;42.668;23.396;2024-02-21T14:32:44;7.75;;;4.63;;
8058;SDS011;75058;42.668;23.396;2024-02-21T14:35:13;5.90;;;3.75;;
8058;SDS011;75058;42.668;23.396;2024-02-21T14:37:42;10.02;;;4.38;;
8058;SDS011;75058;42.668;23.396;2024-02-21T14:40:11;8.38;;;4.40;;
8058;SDS011;75058;42.668;23.396;2024-02-21T14:42:39;7.72;;;5.15;;
8058;SDS011;75058;42.668;23.396;2024-02-21T14:45:08;10.82;;;4.72;;